Data for 04/07/2010

Time Sea-Level Adjusted Pressure Absolute Pressure Temperature Relative Humidity Dew Point   
(mb) (inHg) (mb) (inHg) (C) (F) (%) (C) (F)
00:05 1022 30.18 852 25.16 -2 28.4 75 -6 21.3
00:10 1022 30.18 852 25.16 -2.1 28.2 74 -6.1 21
00:15 1022 30.18 852 25.16 -2.2 28.1 75 -6 21.2
00:20 1022 30.18 852 25.16 -2.2 28 75 -6 21.2
00:25 1023 30.21 852 25.16 -2.4 27.6 76 -6.2 20.9
00:30 1023 30.21 852 25.16 -2.3 27.9 74 -6.3 20.7
00:35 1023 30.21 852 25.16 -2.2 28.1 74 -6.1 21
00:40 1023 30.21 852 25.16 -2.2 28.1 74 -6.2 20.9
00:45 1023 30.21 852 25.16 -2.5 27.6 78 -5.7 21.7
00:50 1023 30.21 852 25.16 -2.9 26.8 80 -5.8 21.5
00:55 1023 30.21 852 25.16 -3 26.6 78 -6.4 20.5
01:00 1023 30.21 852 25.16 -2.6 27.3 73 -6.9 19.6
01:05 1023 30.21 852 25.16 -2.2 28 73 -6.4 20.4
01:10 1023 30.21 852 25.16 -2.3 27.9 71 -6.7 19.9
01:15 1023 30.21 852 25.16 -2.2 28 69 -7.1 19.2
01:20 1023 30.21 852 25.16 -2.3 27.9 77 -5.8 21.5
01:25 1023 30.21 852 25.16 -2.7 27.2 77 -6.1 21
01:30 1023 30.21 852 25.16 -2.8 27 78 -6.1 21.1
01:35 1023 30.21 852 25.16 -2.8 27 70 -7.5 18.5
01:40 1023 30.21 852 25.16 -2.5 27.5 72 -6.9 19.6
01:45 1023 30.21 852 25.16 -2.7 27.2 75 -6.5 20.4
01:50 1023 30.21 852 25.16 -3 26.7 73 -7.2 19
01:55 1023 30.21 852 25.16 -2.9 26.8 71 -7.5 18.6
02:00 1023 30.21 852 25.16 -2.9 26.8 72 -7.3 18.9
02:05 1023 30.21 852 25.16 -3 26.7 69 -7.9 17.9
02:10 1023 30.21 852 25.16 -2.9 26.7 67 -8.3 17.1
02:15 1023 30.21 852 25.16 -2.9 26.8 67 -8.2 17.2
02:20 1023 30.21 852 25.16 -3.1 26.5 67 -8.3 17
02:25 1023 30.21 853 25.19 -3.2 26.3 68 -8.2 17.2
02:30 1023 30.21 853 25.19 -3.2 26.2 69 -8.1 17.4
02:35 1023 30.21 853 25.19 -3.3 26.1 70 -8 17.5
02:40 1023 30.21 853 25.19 -3.3 26 69 -8.2 17.3
02:45 1023 30.21 853 25.19 -3.2 26.2 70 -7.9 17.7
02:50 1023 30.21 853 25.19 -3.3 26.1 70 -8 17.6
02:55 1023 30.21 853 25.19 -3.4 25.8 71 -7.9 17.7
03:00 1023 30.21 853 25.19 -3.8 25.1 76 -7.5 18.5
03:05 1023 30.21 853 25.19 -4.4 24.1 76 -7.9 17.7
03:10 1023 30.21 853 25.19 -4.5 24 75 -8.2 17.3
03:15 1023 30.21 853 25.19 -4.5 23.9 77 -7.9 17.7
03:20 1023 30.21 853 25.19 -4.4 24 75 -8.3 17.1
03:25 1023 30.21 853 25.19 -4 24.9 74 -8 17.6
03:30 1023 30.21 853 25.19 -4.2 24.5 76 -7.9 17.8
03:35 1024 30.24 853 25.19 -4.5 23.9 78 -7.8 18
03:40 1024 30.24 853 25.19 -4.7 23.6 78 -8 17.7
03:45 1024 30.24 853 25.19 -4.4 24.1 76 -8.1 17.5
03:50 1024 30.24 853 25.19 -4.6 23.7 79 -7.8 18
03:55 1024 30.24 853 25.19 -5.1 22.9 80 -7.9 17.7
04:00 1024 30.24 853 25.19 -5.2 22.6 82 -7.8 18
04:05 1024 30.24 853 25.19 -4.9 23.2 80 -7.9 17.8
04:10 1024 30.24 853 25.19 -4.6 23.7 78 -7.8 17.9
04:15 1024 30.24 853 25.19 -4.6 23.7 77 -8.1 17.3
04:20 1024 30.24 853 25.19 -4.4 24.1 75 -8.2 17.2
04:25 1024 30.24 853 25.19 -4.4 24.1 75 -8.2 17.3
04:30 1024 30.24 853 25.19 -3.9 25 70 -8.5 16.6
04:35 1024 30.24 853 25.19 -3.8 25.1 71 -8.3 17.1
04:40 1024 30.24 853 25.19 -4.1 24.5 69 -9 15.7
04:45 1024 30.24 853 25.19 -4 24.9 69 -8.8 16.1
04:50 1024 30.24 853 25.19 -3.8 25.1 66 -9.2 15.4
04:55 1024 30.24 853 25.19 -3.6 25.5 66 -9.1 15.6
05:00 1024 30.24 853 25.19 -3.3 26 63 -9.4 15.1
05:05 1024 30.24 853 25.19 -3.4 25.8 66 -9 15.8
05:10 1024 30.24 853 25.19 -3.7 25.3 67 -9.1 15.6
05:15 1024 30.24 853 25.19 -4.3 24.3 70 -9 15.7
05:20 1024 30.24 853 25.19 -4.9 23.1 71 -9.3 15.2
05:25 1024 30.24 853 25.19 -5.2 22.7 73 -9.3 15.3
05:30 1024 30.24 853 25.19 -5.4 22.2 74 -9.4 15
05:35 1024 30.24 853 25.19 -5.3 22.5 73 -9.3 15.2
05:40 1024 30.24 853 25.19 -4.9 23.2 71 -9.4 15.1
05:45 1024 30.24 853 25.19 -5 23 74 -9 15.8
05:50 1024 30.24 853 25.19 -5.5 22.1 73 -9.7 14.6
05:55 1024 30.24 853 25.19 -5.3 22.5 74 -9.3 15.3
06:00 1024 30.24 853 25.19 -5.1 22.7 73 -9.3 15.2
06:05 1024 30.24 853 25.19 -5.3 22.5 71 -9.8 14.4
06:10 1024 30.24 853 25.19 -5 23 71 -9.5 14.9
06:15 1024 30.24 853 25.19 -5.2 22.6 72 -9.5 14.9
06:20 1024 30.24 853 25.19 -5.6 21.9 75 -9.3 15.2
06:25 1024 30.24 853 25.19 -5.6 21.8 75 -9.4 15.1
06:30 1024 30.24 853 25.19 -5.6 21.9 73 -9.7 14.5
06:35 1024 30.24 853 25.19 -5.1 22.9 72 -9.4 15
06:40 1024 30.24 853 25.19 -5.2 22.7 73 -9.3 15.3
06:45 1024 30.24 853 25.19 -5.1 22.8 71 -9.6 14.8
06:50 1024 30.24 853 25.19 -5.1 22.9 72 -9.4 15.2
06:55 1024 30.24 853 25.19 -5.3 22.6 76 -8.8 16.1
07:00 1024 30.24 854 25.22 -5.6 21.9 74 -9.5 15
07:05 1024 30.24 854 25.22 -5.5 22.2 73 -9.5 14.9
07:10 1024 30.24 854 25.22 -5.4 22.4 71 -9.8 14.3
07:15 1024 30.24 854 25.22 -5.1 22.9 70 -9.8 14.4
07:20 1024 30.24 854 25.22 -5.1 22.8 70 -9.8 14.4
07:25 1024 30.24 854 25.22 -5.1 22.7 70 -9.8 14.4
07:30 1024 30.24 854 25.22 -4.9 23.2 67 -10.2 13.7
07:35 1025 30.27 854 25.22 -4.4 24 65 -10.1 13.8
07:40 1025 30.27 854 25.22 -4.7 23.5 65 -10.4 13.3
07:45 1025 30.27 854 25.22 -4.2 24.4 62 -10.5 13.1
07:50 1025 30.27 854 25.22 -3.7 25.3 60 -10.3 13.4
07:55 1025 30.27 854 25.22 -3.5 25.7 59 -10.4 13.3
08:00 1025 30.27 854 25.22 -2.9 26.8 57 -10.3 13.5
08:05 1025 30.27 854 25.22 -2.6 27.4 57 -9.9 14.1
08:10 1025 30.27 854 25.22 -2.4 27.7 59 -9.3 15.2
08:15 1025 30.27 854 25.22 -1.8 28.8 58 -9.1 15.6
08:20 1025 30.27 854 25.22 -1.7 29 57 -9.2 15.5
08:25 1025 30.27 854 25.22 -1.2 29.9 57 -8.6 16.5
08:30 1025 30.27 854 25.22 -1.9 28.6 61 -8.6 16.6
08:35 1025 30.27 854 25.22 -2.4 27.7 61 -8.8 16.1
08:40 1025 30.27 854 25.22 -2.5 27.4 57 -10 14
08:45 1025 30.27 854 25.22 -2.8 27 61 -9.3 15.3
08:50 1025 30.27 854 25.22 -2 28.4 59 -9.1 15.7
08:55 1025 30.27 854 25.22 -1.3 29.7 55 -9.2 15.5
09:00 1025 30.27 854 25.22 -1.6 29.1 56 -9.4 15.1
09:05 1025 30.27 854 25.22 -1.4 29.5 56 -9.1 15.6
09:10 1025 30.27 854 25.22 -1.5 29.2 54 -9.6 14.7
09:15 1025 30.27 854 25.22 -1.3 29.7 51 -10.2 13.7
09:20 1025 30.27 854 25.22 -1 30.2 51 -9.9 14.2
09:25 1025 30.27 854 25.22 -1.4 29.6 55 -9.3 15.2
09:30 1025 30.27 854 25.22 -1.2 29.8 52 -9.9 14.2
09:35 1025 30.27 854 25.22 0.1 32.2 48 -9.7 14.6
09:40 1025 30.27 854 25.22 1.1 34 45 -9.5 14.9
09:45 1025 30.27 854 25.22 1.9 35.3 43 -9.5 14.9
09:50 1025 30.27 854 25.22 2.7 36.8 40 -9.8 14.4
09:55 1025 30.27 854 25.22 2.5 36.5 41 -9.3 15.2
10:00 1025 30.27 854 25.22 2.4 36.2 42 -9.4 15.2
10:05 1025 30.27 854 25.22 2.2 36 42 -9.4 15.1
10:10 1025 30.27 854 25.22 2.4 36.3 43 -9 15.9
10:15 1025 30.27 854 25.22 2.8 37 43 -8.6 16.4
10:20 1025 30.27 854 25.22 2.3 36.2 45 -8.4 16.9
10:25 1025 30.27 854 25.22 1.4 34.5 48 -8.4 16.8
10:30 1025 30.27 854 25.22 1.3 34.3 48 -8.6 16.6
10:35 1025 30.27 854 25.22 2.4 36.3 44 -8.7 16.4
10:40 1025 30.27 854 25.22 2.6 36.7 43 -8.6 16.5
10:45 1025 30.27 854 25.22 2.5 36.4 44 -8.6 16.6
10:50 1025 30.27 854 25.22 2.5 36.5 44 -8.6 16.6
10:55 1025 30.27 854 25.22 2.8 37 45 -7.9 17.8
11:00 1025 30.27 854 25.22 3.6 38.5 43 -7.8 17.9
11:05 1025 30.27 854 25.22 3.7 38.6 44 -7.6 18.3
11:10 1025 30.27 854 25.22 3.4 38 44 -7.9 17.8
11:15 1025 30.27 854 25.22 3.7 38.7 42 -8.1 17.4
11:20 1025 30.27 854 25.22 3.8 38.9 40 -8.4 16.8
11:25 1025 30.27 854 25.22 3.7 38.6 40 -8.8 16.2
11:30 1025 30.27 854 25.22 3.6 38.4 42 -8.2 17.3
11:35 1025 30.27 854 25.22 3.1 37.5 41 -8.9 16
11:40 1025 30.27 854 25.22 2.8 37 42 -9 15.8
11:45 1025 30.27 854 25.22 2.7 36.9 43 -8.6 16.5
11:50 1025 30.27 854 25.22 3 37.4 39 -9.6 14.7
11:55 1025 30.27 854 25.22 3 37.4 39 -9.7 14.5
12:00 1024 30.24 854 25.22 3.5 38.3 38 -9.5 14.9
12:05 1024 30.24 854 25.22 3.7 38.6 36 -10 14.1
12:10 1024 30.24 854 25.22 3.7 38.6 39 -8.9 15.9
12:15 1024 30.24 854 25.22 3.7 38.7 37 -9.8 14.4
12:20 1024 30.24 853 25.19 4 39.1 37 -9.5 14.8
12:25 1024 30.24 853 25.19 4.6 40.4 35 -9.4 15.1
12:30 1024 30.24 853 25.19 5 41 36 -9 15.8
12:35 1024 30.24 853 25.19 5.1 41.3 33 -9.8 14.4
12:40 1024 30.24 853 25.19 4.9 40.9 34 -9.8 14.3
12:45 1024 30.24 853 25.19 4.9 40.9 32 -10.4 13.2
12:50 1024 30.24 853 25.19 5 41 32 -10.2 13.6
12:55 1024 30.24 853 25.19 5 41 31 -10.9 12.4
13:00 1023 30.21 853 25.19 4.5 40.1 30 -11.5 11.4
13:05 1023 30.21 853 25.19 4.7 40.5 29 -11.9 10.5
13:10 1023 30.21 853 25.19 5.1 41.1 29 -11.5 11.2
13:15 1023 30.21 853 25.19 5.1 41.1 32 -10.1 13.7
13:20 1023 30.21 852 25.16 5.9 42.6 31 -10.1 13.9
13:25 1023 30.21 852 25.16 6.4 43.6 30 -9.8 14.4
13:30 1023 30.21 852 25.16 6 42.8 29 -10.7 12.7
13:35 1023 30.21 852 25.16 6 42.7 31 -10 14
13:40 1023 30.21 852 25.16 6 42.9 30 -10.2 13.6
13:45 1023 30.21 852 25.16 6.2 43.1 32 -9.5 14.9
13:50 1023 30.21 852 25.16 6.2 43.1 30 -10.1 13.8
13:55 1023 30.21 852 25.16 6.1 43 31 -9.8 14.3
14:00 1023 30.21 852 25.16 5.5 41.8 30 -10.9 12.4
14:05 1023 30.21 852 25.16 5.4 41.8 29 -11.1 12
14:10 1023 30.21 852 25.16 5.3 41.5 32 -10.1 13.8
14:15 1023 30.21 852 25.16 5.6 42 31 -10.3 13.4
14:20 1023 30.21 852 25.16 6 42.7 31 -10 14
14:25 1023 30.21 852 25.16 5.8 42.5 32 -9.8 14.4
14:30 1023 30.21 852 25.16 5.5 41.9 31 -10.4 13.3
14:35 1022 30.18 852 25.16 5.7 42.2 31 -10.3 13.4
14:40 1022 30.18 852 25.16 6.5 43.7 27 -11 12.3
14:45 1022 30.18 852 25.16 6.8 44.2 30 -9.5 14.9
14:50 1022 30.18 852 25.16 7 44.6 30 -9.5 15
14:55 1022 30.18 851 25.13 6.7 44 30 -9.7 14.6
15:00 1022 30.18 851 25.13 6.7 44.1 29 -10.1 13.9
15:05 1022 30.18 851 25.13 7.1 44.7 30 -9.4 15.1
15:10 1022 30.18 851 25.13 7.2 44.9 27 -10.4 13.2
15:15 1022 30.18 851 25.13 7.5 45.4 27 -10.5 13.1
15:20 1022 30.18 851 25.13 7.5 45.5 28 -9.8 14.3
15:25 1022 30.18 851 25.13 7.8 46 27 -10.3 13.5
15:30 1022 30.18 851 25.13 7.6 45.6 26 -10.7 12.8
15:35 1022 30.18 851 25.13 7.6 45.6 30 -9.1 15.7
15:40 1022 30.18 851 25.13 7.5 45.6 31 -8.7 16.3
15:45 1022 30.18 851 25.13 7.9 46.2 27 -10.2 13.7
15:50 1022 30.18 851 25.13 8 46.4 29 -8.9 15.9
15:55 1021 30.15 851 25.13 8.1 46.6 29 -9.1 15.7
16:00 1021 30.15 851 25.13 7.5 45.6 28 -9.9 14.3
16:05 1021 30.15 850 25.1 7.8 46 28 -9.7 14.6
16:10 1021 30.15 850 25.1 7.9 46.3 27 -9.8 14.3
16:15 1021 30.15 850 25.1 8 46.5 28 -9.2 15.4
16:20 1021 30.15 850 25.1 8.1 46.5 28 -9.4 15.1
16:25 1021 30.15 850 25.1 8.6 47.5 28 -9 15.8
16:30 1021 30.15 850 25.1 8.6 47.5 29 -8.6 16.4
16:35 1021 30.15 850 25.1 8.1 46.6 28 -9.2 15.4
16:40 1021 30.15 850 25.1 8.2 46.8 28 -9.2 15.4
16:45 1021 30.15 850 25.1 8.5 47.3 28 -8.9 16
16:50 1021 30.15 850 25.1 8.9 48 27 -9 15.8
16:55 1021 30.15 850 25.1 8.5 47.4 29 -8.5 16.7
17:00 1021 30.15 850 25.1 8.6 47.4 30 -8 17.5
17:05 1021 30.15 850 25.1 8.6 47.5 29 -8.5 16.7
17:10 1021 30.15 850 25.1 8.7 47.6 29 -8.4 17
17:15 1021 30.15 850 25.1 8.8 47.8 28 -8.7 16.3
17:20 1021 30.15 850 25.1 8.5 47.2 31 -7.7 18.1
17:25 1021 30.15 850 25.1 8.4 47.1 28 -9.3 15.3
17:30 1021 30.15 850 25.1 8.6 47.6 29 -8.5 16.6
17:35 1021 30.15 850 25.1 8.7 47.6 29 -8.3 17.1
17:40 1021 30.15 850 25.1 9.1 48.3 28 -8.5 16.8
17:45 1021 30.15 850 25.1 8.8 47.8 28 -8.7 16.3
17:50 1021 30.15 850 25.1 8.6 47.5 29 -8.6 16.6
17:55 1021 30.15 850 25.1 9.1 48.4 27 -8.7 16.3
18:00 1021 30.15 850 25.1 9 48.1 30 -7.9 17.8
18:05 1020 30.12 850 25.1 8.7 47.6 29 -8.2 17.2
18:10 1020 30.12 850 25.1 8.8 47.8 29 -8.2 17.2
18:15 1020 30.12 850 25.1 8.7 47.6 29 -8.3 17
18:20 1020 30.12 850 25.1 8.6 47.5 30 -8 17.6
18:25 1020 30.12 850 25.1 8.4 47.2 30 -8.2 17.2
18:30 1020 30.12 850 25.1 8.2 46.8 30 -8.2 17.3
18:35 1020 30.12 850 25.1 8.2 46.7 33 -7 19.3
18:40 1020 30.12 850 25.1 8.2 46.8 33 -7 19.3
18:45 1020 30.12 850 25.1 8 46.3 33 -7.3 18.9
18:50 1020 30.12 849 25.07 8 46.4 33 -7.3 18.9
18:55 1020 30.12 849 25.07 7.9 46.3 34 -7.1 19.2
19:00 1020 30.12 849 25.07 7.9 46.1 33 -7.4 18.7
19:05 1020 30.12 849 25.07 7.6 45.7 33 -7.6 18.4
19:10 1020 30.12 849 25.07 7.6 45.6 33 -7.6 18.3
19:15 1020 30.12 849 25.07 7.5 45.5 33 -7.6 18.4
19:20 1020 30.12 849 25.07 7.5 45.5 33 -7.8 17.9
19:25 1020 30.12 849 25.07 7.4 45.4 34 -7.5 18.5
19:30 1020 30.12 849 25.07 7.4 45.3 36 -6.9 19.6
19:35 1020 30.12 849 25.07 7.2 44.9 37 -6.4 20.5
19:40 1020 30.12 849 25.07 7 44.7 37 -6.8 19.7
19:45 1020 30.12 849 25.07 6.9 44.4 37 -6.8 19.7
19:50 1020 30.12 849 25.07 6.8 44.3 37 -6.8 19.8
19:55 1020 30.12 849 25.07 6.5 43.7 40 -6.2 20.9
20:00 1020 30.12 849 25.07 6 42.8 42 -5.8 21.5
20:05 1020 30.12 849 25.07 5.6 42.1 44 -5.7 21.8
20:10 1020 30.12 849 25.07 5.6 42 43 -5.9 21.4
20:15 1020 30.12 849 25.07 5.5 41.9 45 -5.5 22.1
20:20 1020 30.12 849 25.07 5 41 52 -4 24.8
20:25 1020 30.12 849 25.07 4.1 39.4 53 -4.7 23.5
20:30 1020 30.12 849 25.07 4 39.3 53 -4.6 23.7
20:35 1020 30.12 849 25.07 4 39.3 53 -4.6 23.7
20:40 1020 30.12 849 25.07 4.3 39.8 53 -4.4 24
20:45 1020 30.12 849 25.07 4.2 39.6 53 -4.6 23.8
20:50 1020 30.12 849 25.07 4 39.3 53 -4.6 23.7
20:55 1020 30.12 849 25.07 3.9 38.9 54 -4.5 23.8
21:00 1020 30.12 849 25.07 3.6 38.5 54 -4.8 23.4
21:05 1020 30.12 849 25.07 3.6 38.5 55 -4.5 23.8
21:10 1020 30.12 849 25.07 3.3 37.9 55 -4.9 23.3
21:15 1020 30.12 849 25.07 3 37.4 57 -4.7 23.6
21:20 1020 30.12 849 25.07 2.8 37.1 56 -5.1 22.9
21:25 1020 30.12 849 25.07 3 37.4 55 -5.3 22.5
21:30 1020 30.12 849 25.07 3.2 37.8 54 -5.1 22.8
21:35 1020 30.12 849 25.07 3.3 37.9 54 -5 22.9
21:40 1020 30.12 849 25.07 3.2 37.8 55 -5 22.9
21:45 1020 30.12 849 25.07 3 37.5 56 -4.9 23.3
21:50 1020 30.12 849 25.07 2.9 37.2 56 -5 22.9
21:55 1020 30.12 849 25.07 3.1 37.6 54 -5.3 22.5
22:00 1020 30.12 849 25.07 3.4 38 53 -5.3 22.5
22:05 1020 30.12 849 25.07 3.4 38.1 53 -5.3 22.5
22:10 1020 30.12 849 25.07 3.3 38 53 -5.3 22.5
22:15 1020 30.12 849 25.07 3.2 37.7 54 -5.3 22.5
22:20 1020 30.12 849 25.07 3.1 37.6 54 -5.4 22.2
22:25 1020 30.12 849 25.07 3.2 37.7 54 -5.3 22.5
22:30 1020 30.12 849 25.07 3.2 37.7 55 -5.1 22.9
22:35 1020 30.12 849 25.07 3 37.4 56 -4.9 23.2
22:40 1020 30.12 849 25.07 2.8 37 57 -4.9 23.3
22:45 1020 30.12 849 25.07 2.5 36.4 58 -5.1 22.9
22:50 1020 30.12 849 25.07 2.3 36.1 56 -5.5 22
22:55 1019 30.09 849 25.07 2.5 36.5 56 -5.4 22.2
23:00 1019 30.09 849 25.07 2.5 36.5 55 -5.7 21.7
23:05 1019 30.09 849 25.07 2.6 36.6 55 -5.5 22.1
23:10 1019 30.09 849 25.07 2.4 36.3 56 -5.4 22.2
23:15 1019 30.09 848 25.04 2.3 36.2 56 -5.6 22
23:20 1019 30.09 848 25.04 2.4 36.3 56 -5.5 22.1
23:25 1019 30.09 848 25.04 2.3 36.2 56 -5.6 22
23:30 1019 30.09 848 25.04 2.2 36 57 -5.5 22
23:35 1019 30.09 848 25.04 2 35.6 58 -5.3 22.4
23:40 1019 30.09 848 25.04 1.8 35.3 58 -5.6 22
23:45 1019 30.09 848 25.04 2 35.6 57 -5.7 21.8
23:50 1019 30.09 848 25.04 2.2 35.9 56 -5.6 21.9
23:55 1019 30.09 848 25.04 2.3 36.1 55 -5.9 21.4
24:00 1019 30.09 848 25.04 2.3 36.1 54 -6.1 21